createdAt,value
2022-12-27T00:01:12.435Z,89.00
2022-12-27T00:04:16.224Z,89.60
2022-12-27T00:07:20.040Z,89.00
2022-12-27T00:10:23.639Z,88.90
2022-12-27T00:13:29.221Z,88.90
2022-12-27T00:16:33.093Z,89.00
2022-12-27T00:19:36.633Z,89.00
2022-12-27T00:22:40.836Z,89.00
2022-12-27T00:25:44.587Z,89.00
2022-12-27T00:28:50.827Z,89.00
2022-12-27T00:31:54.563Z,89.00
2022-12-27T00:34:58.091Z,89.00
2022-12-27T00:38:02.225Z,89.00
2022-12-27T00:41:07.105Z,89.00
2022-12-27T00:44:12.794Z,89.10
2022-12-27T00:47:16.541Z,89.10
2022-12-27T00:50:20.421Z,89.10
2022-12-27T00:53:23.895Z,89.10
2022-12-27T00:56:30.730Z,89.10
2022-12-27T00:59:36.486Z,89.10
2022-12-27T01:02:40.173Z,89.10
2022-12-27T01:05:44.052Z,89.10
2022-12-27T01:08:48.643Z,89.10
2022-12-27T01:11:52.355Z,89.10
2022-12-27T01:14:57.805Z,89.10
2022-12-27T01:18:01.560Z,89.10
2022-12-27T01:21:07.488Z,89.10
2022-12-27T01:24:11.363Z,89.10
2022-12-27T01:27:15.040Z,89.10
2022-12-27T01:30:20.758Z,89.10
2022-12-27T01:33:25.031Z,89.10
2022-12-27T01:36:30.891Z,89.10
2022-12-27T01:39:34.632Z,89.10
2022-12-27T01:42:51.564Z,89.10
2022-12-27T01:45:57.146Z,89.20
2022-12-27T01:49:03.314Z,89.10
2022-12-27T01:52:11.219Z,89.10
2022-12-27T01:55:21.282Z,89.20
2022-12-27T01:58:28.492Z,89.20
2022-12-27T02:01:37.968Z,89.20
2022-12-27T02:04:42.454Z,89.30
2022-12-27T02:07:58.944Z,89.20
2022-12-27T02:11:04.230Z,89.30
2022-12-27T02:14:08.336Z,89.30
2022-12-27T02:17:16.810Z,89.30
2022-12-27T02:20:23.182Z,89.30
2022-12-27T02:24:00.641Z,89.40
2022-12-27T02:27:15.175Z,89.30
2022-12-27T02:30:22.078Z,89.30
2022-12-27T02:33:31.433Z,89.30
2022-12-27T02:36:38.626Z,89.30
2022-12-27T02:39:45.795Z,89.30
2022-12-27T02:43:03.815Z,89.30
2022-12-27T02:46:33.824Z,89.40
2022-12-27T02:49:52.560Z,89.40
2022-12-27T02:53:07.572Z,89.40
2022-12-27T02:56:36.395Z,89.40
2022-12-27T03:00:17.600Z,89.40
2022-12-27T03:03:44.636Z,89.40
2022-12-27T03:07:16.745Z,89.40
2022-12-27T03:10:46.379Z,89.40
2022-12-27T03:14:10.013Z,89.60
2022-12-27T03:17:23.693Z,89.50
2022-12-27T03:20:42.902Z,89.50
2022-12-27T03:24:01.900Z,89.50
2022-12-27T03:27:10.704Z,89.50
2022-12-27T03:30:28.591Z,89.50
2022-12-27T03:33:35.043Z,89.50
2022-12-27T03:36:54.202Z,89.50
2022-12-27T03:40:07.717Z,89.50
2022-12-27T03:43:15.010Z,89.50
2022-12-27T03:46:38.200Z,89.60
2022-12-27T03:49:48.842Z,89.60
2022-12-27T03:52:59.222Z,89.60
2022-12-27T03:56:03.217Z,89.70
2022-12-27T03:59:07.925Z,89.60
2022-12-27T04:02:12.232Z,89.60
2022-12-27T04:05:16.017Z,89.60
2022-12-27T04:08:34.767Z,89.70
2022-12-27T04:11:51.655Z,89.60
2022-12-27T04:15:08.557Z,89.60
2022-12-27T04:18:25.455Z,89.70
2022-12-27T04:21:42.305Z,89.60
2022-12-27T04:25:01.096Z,89.70
2022-12-27T04:28:18.073Z,89.70
2022-12-27T04:31:35.049Z,89.70
2022-12-27T04:34:41.363Z,89.70
2022-12-27T04:37:45.081Z,89.70
2022-12-27T04:41:03.883Z,89.70
2022-12-27T04:44:21.878Z,89.70
2022-12-27T04:47:39.351Z,89.80
2022-12-27T04:50:56.226Z,89.70
2022-12-27T04:54:13.095Z,89.70
2022-12-27T04:57:18.730Z,89.70
2022-12-27T05:00:37.167Z,89.70
2022-12-27T05:03:41.784Z,89.70
2022-12-27T05:06:45.723Z,89.70
2022-12-27T05:10:02.459Z,89.80
2022-12-27T05:13:23.484Z,89.70
2022-12-27T05:16:27.692Z,89.60
2022-12-27T05:19:31.443Z,89.80
2022-12-27T05:22:48.293Z,89.70
2022-12-27T05:25:52.080Z,89.70
2022-12-27T05:28:58.797Z,89.80
2022-12-27T05:32:03.351Z,89.70
2022-12-27T05:35:09.984Z,89.60
2022-12-27T05:38:13.722Z,89.70
2022-12-27T05:41:17.596Z,89.70
2022-12-27T05:44:23.236Z,89.80
2022-12-27T05:47:26.942Z,89.70
2022-12-27T05:50:30.888Z,89.70
2022-12-27T05:53:47.754Z,89.80
2022-12-27T05:56:51.513Z,89.80
2022-12-27T05:59:57.122Z,89.80
2022-12-27T06:03:01.001Z,89.80
2022-12-27T06:06:07.906Z,89.80
2022-12-27T06:09:11.926Z,89.80
2022-12-27T06:12:15.467Z,89.80
2022-12-27T06:15:21.169Z,89.90
2022-12-27T06:18:24.859Z,90.10
2022-12-27T06:21:28.683Z,89.70
2022-12-27T06:24:32.465Z,89.90
2022-12-27T06:27:36.236Z,89.80
2022-12-27T06:30:41.709Z,89.80
2022-12-27T06:33:45.623Z,89.80
2022-12-27T06:36:50.367Z,89.70
2022-12-27T06:39:54.089Z,89.70
2022-12-27T06:42:57.809Z,89.70
2022-12-27T06:46:05.873Z,89.70
2022-12-27T06:49:11.541Z,89.70
2022-12-27T06:52:15.285Z,89.70
2022-12-27T06:55:19.020Z,89.70
2022-12-27T06:58:22.839Z,89.80
2022-12-27T07:01:30.208Z,89.70
2022-12-27T07:04:34.063Z,89.70
2022-12-27T07:07:37.811Z,89.70
2022-12-27T07:10:41.642Z,90.20
2022-12-27T07:13:47.622Z,89.80
2022-12-27T07:16:53.319Z,90.20
2022-12-27T07:19:57.006Z,89.70
2022-12-27T07:23:00.814Z,89.80
2022-12-27T07:26:04.971Z,89.80
2022-12-27T07:29:09.192Z,89.80
2022-12-27T07:32:14.893Z,89.70
2022-12-27T07:35:18.688Z,89.80
2022-12-27T07:38:22.378Z,89.80
2022-12-27T07:41:26.123Z,89.80
2022-12-27T07:44:30.200Z,89.90
2022-12-27T07:47:35.684Z,89.90
2022-12-27T07:50:39.379Z,89.90
2022-12-27T07:53:42.971Z,89.90
2022-12-27T07:56:46.658Z,89.90
2022-12-27T07:59:50.384Z,89.80
2022-12-27T08:02:56.015Z,89.90
2022-12-27T08:05:59.894Z,89.90
2022-12-27T08:09:05.728Z,90.00
2022-12-27T08:12:09.964Z,90.00
2022-12-27T08:15:14.015Z,90.00
2022-12-27T08:18:19.689Z,90.00
2022-12-27T08:21:24.097Z,90.00
2022-12-27T08:24:27.926Z,90.00
2022-12-27T08:27:31.373Z,90.10
2022-12-27T08:30:35.637Z,90.10
2022-12-27T08:33:41.991Z,90.00
2022-12-27T08:36:55.001Z,90.10
2022-12-27T08:40:02.669Z,90.10
2022-12-27T08:43:06.928Z,90.10
2022-12-27T08:46:10.699Z,90.10
2022-12-27T08:49:16.118Z,90.20
2022-12-27T08:52:19.869Z,90.40
2022-12-27T08:55:23.627Z,90.10
2022-12-27T08:58:28.445Z,90.10
2022-12-27T09:01:32.126Z,90.20
2022-12-27T09:04:38.045Z,90.20
2022-12-27T09:07:41.848Z,90.20
2022-12-27T09:10:45.577Z,90.20
2022-12-27T09:13:49.376Z,90.20
2022-12-27T09:16:52.918Z,90.20
2022-12-27T09:19:58.905Z,90.20
2022-12-27T09:23:03.668Z,90.20
2022-12-27T09:26:08.396Z,90.20
2022-12-27T09:29:12.734Z,90.20
2022-12-27T09:32:16.794Z,90.20
2022-12-27T09:35:22.442Z,90.20
2022-12-27T09:38:26.168Z,90.30
2022-12-27T09:45:19.039Z,90.30
2022-12-27T09:48:33.521Z,90.30
2022-12-27T09:51:47.850Z,90.30
2022-12-27T09:55:04.633Z,90.30
2022-12-27T09:58:29.978Z,90.30
2022-12-27T10:01:36.059Z,90.30
2022-12-27T10:05:17.965Z,90.30
2022-12-27T10:08:23.242Z,90.40
2022-12-27T10:11:39.489Z,90.30
2022-12-27T10:14:57.731Z,90.40
2022-12-27T10:18:14.075Z,90.40
2022-12-27T10:21:22.926Z,90.50
2022-12-27T10:24:36.938Z,90.40
2022-12-27T10:27:41.450Z,90.50
2022-12-27T10:30:46.196Z,90.50
2022-12-27T10:33:51.688Z,90.50
2022-12-27T10:36:55.721Z,90.50
2022-12-27T10:40:08.905Z,90.40
2022-12-27T10:43:19.617Z,90.40
2022-12-27T10:46:32.398Z,90.40
2022-12-27T10:49:37.834Z,90.40
2022-12-27T10:52:41.776Z,90.40
2022-12-27T10:55:48.214Z,90.40
2022-12-27T10:58:58.726Z,90.40
2022-12-27T11:02:18.510Z,90.30
2022-12-27T11:05:24.735Z,90.40
2022-12-27T11:08:28.820Z,90.40
2022-12-27T11:11:34.512Z,90.40
2022-12-27T11:14:38.267Z,90.40
2022-12-27T11:17:45.357Z,90.30
2022-12-27T11:20:52.077Z,90.40
2022-12-27T11:24:00.614Z,90.40
2022-12-27T11:27:06.799Z,90.30
2022-12-27T11:30:26.276Z,90.30
2022-12-27T11:33:36.797Z,90.30
2022-12-27T11:36:44.134Z,90.30
2022-12-27T11:39:51.269Z,90.30
2022-12-27T11:43:04.279Z,90.30
2022-12-27T11:46:20.642Z,90.30
2022-12-27T11:49:27.750Z,90.20
2022-12-27T11:52:55.958Z,90.30
2022-12-27T11:56:12.295Z,90.20
2022-12-27T11:59:31.674Z,90.20
2022-12-27T12:02:58.207Z,90.50
2022-12-27T12:06:15.914Z,90.20
2022-12-27T12:09:44.733Z,90.20
2022-12-27T12:13:10.836Z,90.20
2022-12-27T12:16:33.409Z,90.20
2022-12-27T12:20:01.498Z,90.20
2022-12-27T12:23:12.932Z,90.20
2022-12-27T12:26:22.160Z,90.20
2022-12-27T12:29:56.580Z,90.20
2022-12-27T12:33:22.985Z,90.10
2022-12-27T12:36:52.733Z,90.10
2022-12-27T12:40:19.420Z,90.10
2022-12-27T12:43:45.065Z,90.20
2022-12-27T12:46:58.046Z,90.10
2022-12-27T12:50:21.390Z,90.20
2022-12-27T12:53:44.972Z,90.10
2022-12-27T12:57:00.277Z,90.20
2022-12-27T13:00:27.245Z,90.20
2022-12-27T13:03:51.765Z,90.10
2022-12-27T13:07:28.213Z,90.10
2022-12-27T13:11:13.401Z,90.20
2022-12-27T13:14:42.985Z,90.10
2022-12-27T13:18:00.489Z,90.10
2022-12-27T13:21:21.822Z,90.10
2022-12-27T13:24:37.071Z,90.10
2022-12-27T13:27:55.095Z,90.10
2022-12-27T13:31:03.104Z,90.10
2022-12-27T13:34:21.837Z,90.20
2022-12-27T13:37:38.879Z,90.20
2022-12-27T13:41:04.009Z,90.10
2022-12-27T13:44:32.348Z,90.10
2022-12-27T13:47:58.741Z,90.10
2022-12-27T13:51:14.231Z,90.10
2022-12-27T13:54:40.050Z,90.10
2022-12-27T13:58:03.426Z,90.10
2022-12-27T14:01:27.081Z,90.10
2022-12-27T14:04:47.932Z,90.10
2022-12-27T14:08:01.109Z,90.10
2022-12-27T14:11:05.293Z,90.00
2022-12-27T14:14:12.928Z,90.10
2022-12-27T14:17:29.437Z,90.10
2022-12-27T14:20:50.632Z,90.00
2022-12-27T14:24:03.704Z,90.00
2022-12-27T14:27:41.552Z,90.00
2022-12-27T14:31:20.494Z,90.00
2022-12-27T14:35:00.088Z,90.10
2022-12-27T14:38:39.882Z,90.00
2022-12-27T14:42:28.698Z,90.00
2022-12-27T14:46:06.441Z,90.00
2022-12-27T14:49:51.476Z,90.00
2022-12-27T14:53:05.209Z,90.00
2022-12-27T14:56:19.603Z,90.00
2022-12-27T14:59:36.772Z,90.00
2022-12-27T15:03:07.825Z,90.00
2022-12-27T15:06:21.079Z,90.00
2022-12-27T15:09:33.113Z,89.90
2022-12-27T15:12:44.864Z,90.00
2022-12-27T15:15:57.333Z,90.00
2022-12-27T15:19:17.493Z,90.00
2022-12-27T15:22:32.824Z,89.90
2022-12-27T15:25:51.462Z,89.90
2022-12-27T15:29:11.712Z,90.00
2022-12-27T15:32:27.836Z,89.90
2022-12-27T15:35:51.138Z,90.20
2022-12-27T15:38:57.421Z,89.90
2022-12-27T15:42:08.700Z,89.90
2022-12-27T15:45:27.171Z,89.90
2022-12-27T15:48:58.071Z,89.90
2022-12-27T15:52:09.027Z,90.00
2022-12-27T15:55:23.644Z,90.00
2022-12-27T15:58:28.239Z,90.00
2022-12-27T16:01:34.259Z,90.00
2022-12-27T16:04:51.439Z,89.90
2022-12-27T16:08:36.427Z,90.00
2022-12-27T16:12:09.554Z,90.10
2022-12-27T16:15:51.421Z,89.90
2022-12-27T16:19:24.292Z,90.00
2022-12-27T16:22:34.304Z,90.00
2022-12-27T16:25:39.759Z,90.00
2022-12-27T16:28:54.319Z,90.00
2022-12-27T16:32:20.872Z,90.00
2022-12-27T16:35:25.027Z,90.00
2022-12-27T16:38:31.431Z,90.00
2022-12-27T16:41:59.795Z,90.00
2022-12-27T16:45:30.034Z,90.00
2022-12-27T16:48:47.742Z,90.00
2022-12-27T16:52:04.829Z,90.00
2022-12-27T16:55:36.527Z,90.00
2022-12-27T16:58:41.194Z,90.00
2022-12-27T17:02:02.091Z,90.00
2022-12-27T17:05:33.869Z,90.00
2022-12-27T17:08:37.631Z,90.00
2022-12-27T17:12:01.975Z,90.00
2022-12-27T17:15:06.985Z,90.00
2022-12-27T17:18:25.782Z,90.00
2022-12-27T17:21:32.186Z,90.00
2022-12-27T17:24:36.321Z,90.10
2022-12-27T17:27:54.483Z,90.10
2022-12-27T17:31:05.725Z,90.10
2022-12-27T17:34:20.241Z,90.10
2022-12-27T17:37:30.879Z,90.10
2022-12-27T17:40:41.239Z,90.10
2022-12-27T17:44:07.792Z,90.10
2022-12-27T17:47:31.459Z,90.10
2022-12-27T17:50:40.886Z,90.10
2022-12-27T17:54:01.078Z,90.10
2022-12-27T17:57:41.040Z,90.10
2022-12-27T18:00:54.602Z,90.10
2022-12-27T18:03:58.340Z,90.10
2022-12-27T18:07:06.708Z,90.10
2022-12-27T18:10:20.339Z,90.10
2022-12-27T18:13:27.177Z,90.00
2022-12-27T18:16:38.857Z,90.30
2022-12-27T18:19:42.705Z,90.00
2022-12-27T18:22:48.430Z,90.00
2022-12-27T18:26:00.394Z,90.00
2022-12-27T18:29:04.767Z,90.00
2022-12-27T18:32:10.899Z,90.00
2022-12-27T18:35:24.094Z,90.00
2022-12-27T18:38:35.129Z,90.00
2022-12-27T18:41:44.534Z,90.00
2022-12-27T18:44:52.346Z,90.00
2022-12-27T18:47:59.586Z,90.00
2022-12-27T18:51:05.491Z,90.00
2022-12-27T18:54:31.859Z,90.10
2022-12-27T18:57:37.307Z,90.00
2022-12-27T19:00:49.676Z,90.00
2022-12-27T19:04:24.632Z,90.00
2022-12-27T19:07:28.535Z,90.00
2022-12-27T19:10:34.696Z,90.00
2022-12-27T19:13:48.875Z,90.00
2022-12-27T19:16:55.991Z,90.00
2022-12-27T19:20:02.356Z,90.00
2022-12-27T19:23:23.047Z,90.00
2022-12-27T19:26:33.546Z,90.00
2022-12-27T19:29:42.675Z,90.00
2022-12-27T19:32:46.659Z,90.00
2022-12-27T19:35:50.481Z,89.90
2022-12-27T19:38:59.150Z,89.90
2022-12-27T19:42:08.018Z,89.80
2022-12-27T19:45:15.360Z,89.80
2022-12-27T19:48:19.109Z,89.80
2022-12-27T19:51:22.957Z,89.70
2022-12-27T19:54:26.706Z,89.70
2022-12-27T19:57:32.574Z,89.60
2022-12-27T20:00:36.349Z,89.60
2022-12-27T20:03:40.286Z,89.60
2022-12-27T20:06:47.134Z,89.60
2022-12-27T20:09:52.409Z,89.50
2022-12-27T20:12:58.068Z,89.40
2022-12-27T20:16:02.476Z,89.40
2022-12-27T20:19:06.233Z,89.40
2022-12-27T20:22:09.989Z,89.40
2022-12-27T20:25:13.792Z,89.40
2022-12-27T20:28:21.810Z,89.40
2022-12-27T20:31:26.011Z,89.30
2022-12-27T20:34:29.854Z,89.30
2022-12-27T20:37:33.652Z,89.20
2022-12-27T20:40:38.224Z,89.30
2022-12-27T20:43:44.216Z,89.30
2022-12-27T20:46:52.075Z,89.30
2022-12-27T20:49:57.243Z,89.20
2022-12-27T20:53:01.038Z,89.10
2022-12-27T20:56:06.291Z,89.10
2022-12-27T20:59:12.351Z,89.20
2022-12-27T21:02:16.278Z,89.10
2022-12-27T21:05:20.606Z,89.10
2022-12-27T21:08:24.413Z,89.10
2022-12-27T21:11:30.528Z,89.10
2022-12-27T21:14:36.725Z,89.10
2022-12-27T21:17:40.483Z,89.10
2022-12-27T21:20:44.230Z,89.20
2022-12-27T21:23:48.459Z,89.10
2022-12-27T21:26:56.401Z,89.20
2022-12-27T21:30:02.415Z,89.10
2022-12-27T21:33:06.542Z,89.10
2022-12-27T21:36:13.599Z,89.10
2022-12-27T21:39:17.378Z,89.00
2022-12-27T21:42:21.101Z,89.00
2022-12-27T21:45:26.756Z,89.10
2022-12-27T21:48:30.475Z,88.90
2022-12-27T21:51:35.481Z,89.00
2022-12-27T21:54:39.361Z,89.00
2022-12-27T21:57:42.972Z,89.00
2022-12-27T22:00:48.622Z,88.90
2022-12-27T22:03:54.530Z,88.90
2022-12-27T22:06:58.301Z,88.90
2022-12-27T22:10:02.022Z,89.00
2022-12-27T22:13:05.765Z,89.00
2022-12-27T22:16:14.930Z,89.00
2022-12-27T22:19:18.749Z,88.90
2022-12-27T22:22:22.501Z,88.90
2022-12-27T22:25:26.206Z,88.90
2022-12-27T22:28:30.443Z,88.90
2022-12-27T22:31:37.198Z,88.90
2022-12-27T22:34:40.929Z,88.90
2022-12-27T22:37:44.672Z,88.90
2022-12-27T22:40:48.432Z,88.90
2022-12-27T22:43:52.961Z,88.90
2022-12-27T22:47:25.760Z,88.90
2022-12-27T22:50:23.914Z,88.90
2022-12-27T22:53:27.367Z,88.80
2022-12-27T22:56:32.960Z,88.90
2022-12-27T22:59:36.727Z,88.80
2022-12-27T23:02:42.525Z,88.80
2022-12-27T23:05:46.377Z,88.80
2022-12-27T23:08:50.241Z,88.80
2022-12-27T23:11:53.956Z,88.80
2022-12-27T23:14:57.739Z,88.70
2022-12-27T23:18:03.413Z,88.80
2022-12-27T23:21:20.732Z,88.80
2022-12-27T23:24:27.839Z,88.80
2022-12-27T23:27:31.551Z,88.80
2022-12-27T23:30:35.396Z,88.80
2022-12-27T23:33:42.266Z,88.80
2022-12-27T23:36:45.968Z,88.70
2022-12-27T23:39:49.718Z,88.70
2022-12-27T23:42:53.504Z,88.80
2022-12-27T23:45:57.402Z,88.70
2022-12-27T23:49:03.510Z,88.80
2022-12-27T23:52:07.264Z,88.70
2022-12-27T23:55:11.546Z,88.80
2022-12-27T23:58:15.253Z,88.80
